Time;durP1;ratioP1;P1;durP2;ratioP2;P2;SDS_P1;SDS_P2;PMS_P1;PMS_P2;Temp;Humidity;BMP_temperature;BMP_pressure;BME280_temperature;BME280_humidity;BME280_pressure;Samples;Min_cycle;Max_cycle;Signal;HPM_P1;HPM_P2
2023/05/26 00:02:24;;;;;;;9.85;5.90;;;;;;;;;;5000781;28;20031;-85
2023/05/26 00:04:50;;;;;;;9.27;6.07;;;;;;;;;;4990944;28;20042;-86
2023/05/26 00:07:16;;;;;;;7.50;5.80;;;;;;;;;;4986181;28;20034;-86
2023/05/26 00:09:42;;;;;;;11.13;6.18;;;;;;;;;;4999420;28;20085;-86
2023/05/26 00:12:07;;;;;;;11.05;7.10;;;;;;;;;;4993250;28;20481;-86
2023/05/26 00:14:33;;;;;;;8.45;6.60;;;;;;;;;;4995759;28;20043;-85
2023/05/26 00:16:58;;;;;;;12.95;6.40;;;;;;;;;;5000967;28;20515;-85
2023/05/26 00:19:24;;;;;;;8.48;6.10;;;;;;;;;;5002120;28;20116;-85
2023/05/26 00:21:50;;;;;;;8.00;6.10;;;;;;;;;;4998001;28;20485;-85
2023/05/26 00:24:16;;;;;;;9.10;6.55;;;;;;;;;;4986161;28;20038;-85
2023/05/26 00:26:41;;;;;;;8.07;6.43;;;;;;;;;;4990288;28;20031;-86
2023/05/26 00:29:07;;;;;;;8.05;6.20;;;;;;;;;;5007616;28;20036;-86
2023/05/26 00:31:32;;;;;;;10.38;6.50;;;;;;;;;;4999523;28;20030;-86
2023/05/26 00:33:58;;;;;;;9.18;6.38;;;;;;;;;;4996326;28;20034;-86
2023/05/26 00:36:23;;;;;;;8.30;6.22;;;;;;;;;;4998134;28;20030;-86
2023/05/26 00:38:49;;;;;;;10.52;6.28;;;;;;;;;;4996562;28;20061;-86
2023/05/26 00:41:14;;;;;;;10.68;6.90;;;;;;;;;;4995827;28;20069;-85
2023/05/26 00:43:40;;;;;;;8.80;6.28;;;;;;;;;;5008063;28;20038;-85
2023/05/26 00:46:05;;;;;;;11.73;6.07;;;;;;;;;;4990645;28;20081;-85
2023/05/26 00:48:31;;;;;;;9.05;5.90;;;;;;;;;;4985988;28;20058;-84
2023/05/26 00:50:57;;;;;;;9.07;5.93;;;;;;;;;;4999818;28;20452;-85
2023/05/26 00:53:23;;;;;;;9.80;6.38;;;;;;;;;;4997925;28;20035;-85
2023/05/26 00:55:51;;;;;;;9.48;6.05;;;;;;;;;;4997645;28;20037;-86
2023/05/26 00:58:16;;;;;;;8.10;5.90;;;;;;;;;;4986701;28;20556;-86
2023/05/26 01:00:42;;;;;;;10.00;5.90;;;;;;;;;;4998966;28;20030;-86
2023/05/26 01:03:11;;;;;;;10.25;6.47;;;;;;;;;;4993845;28;20034;-86
2023/05/26 01:05:37;;;;;;;10.35;6.63;;;;;;;;;;5011332;28;20125;-86
2023/05/26 01:08:03;;;;;;;9.48;6.53;;;;;;;;;;4999466;28;20504;-85
2023/05/26 01:10:31;;;;;;;13.10;6.90;;;;;;;;;;4982356;28;20047;-86
2023/05/26 01:13:03;;;;;;;7.63;6.40;;;;;;;;;;4985674;28;20515;-85
2023/05/26 01:15:48;;;;;;;9.80;6.70;;;;;;;;;;4998135;28;20114;-85
2023/05/26 01:18:41;;;;;;;8.88;6.53;;;;;;;;;;5005509;28;20042;-86
2023/05/26 01:21:13;;;;;;;8.63;6.18;;;;;;;;;;4992654;28;20538;-85
2023/05/26 01:23:53;;;;;;;;;;;;;;;;;;4997947;28;20030;-86
2023/05/26 01:26:31;;;;;;;7.03;5.70;;;;;;;;;;4996374;28;19918;-86
2023/05/26 01:29:03;;;;;;;8.75;5.93;;;;;;;;;;4996570;28;20126;-85
2023/05/26 01:31:33;;;;;;;11.05;5.88;;;;;;;;;;5008391;28;20038;-83
2023/05/26 01:34:00;;;;;;;7.50;6.00;;;;;;;;;;4996143;28;20038;-84
2023/05/26 01:36:27;;;;;;;7.95;6.30;;;;;;;;;;4992770;28;20065;-84
2023/05/26 01:38:53;;;;;;;7.90;6.28;;;;;;;;;;4998222;28;20073;-85
2023/05/26 01:41:26;;;;;;;8.90;6.05;;;;;;;;;;4998417;28;20030;-85
2023/05/26 01:43:54;;;;;;;8.20;6.40;;;;;;;;;;4982015;28;20162;-85
2023/05/26 01:46:37;;;;;;;9.30;6.13;;;;;;;;;;4985685;28;20050;-85
2023/05/26 01:49:07;;;;;;;11.63;6.30;;;;;;;;;;4999553;28;20472;-86
2023/05/26 01:51:35;;;;;;;10.68;5.93;;;;;;;;;;4990857;28;20038;-86
2023/05/26 01:54:04;;;;;;;7.97;6.07;;;;;;;;;;4989481;28;20125;-85
2023/05/26 01:56:32;;;;;;;12.07;6.47;;;;;;;;;;4999466;28;20078;-85
2023/05/26 01:59:00;;;;;;;10.13;6.38;;;;;;;;;;4999624;28;20058;-86
2023/05/26 02:01:27;;;;;;;11.80;6.35;;;;;;;;;;4984479;28;20031;-85
2023/05/26 02:03:52;;;;;;;9.40;5.90;;;;;;;;;;4999759;28;20081;-84
2023/05/26 02:06:18;;;;;;;7.40;5.70;;;;;;;;;;4990494;28;20101;-85
2023/05/26 02:08:44;;;;;;;11.38;5.72;;;;;;;;;;4993764;28;20166;-85
2023/05/26 02:11:10;;;;;;;8.75;5.80;;;;;;;;;;5000756;28;20049;-85
2023/05/26 02:13:35;;;;;;;7.55;5.82;;;;;;;;;;5001110;28;20046;-85
2023/05/26 02:16:01;;;;;;;9.68;5.30;;;;;;;;;;4989172;28;20497;-84
2023/05/26 02:18:27;;;;;;;7.32;5.45;;;;;;;;;;5002321;28;20042;-85
2023/05/26 02:20:53;;;;;;;12.02;5.53;;;;;;;;;;4990863;28;20521;-86
2023/05/26 02:23:19;;;;;;;7.97;5.20;;;;;;;;;;5000074;28;20026;-85
2023/05/26 02:25:45;;;;;;;7.32;5.20;;;;;;;;;;5001104;28;20121;-85
2023/05/26 02:28:11;;;;;;;5.85;4.90;;;;;;;;;;5000696;28;20042;-84
2023/05/26 02:30:37;;;;;;;7.93;5.25;;;;;;;;;;5016615;28;20475;-85
2023/05/26 02:33:04;;;;;;;7.13;5.45;;;;;;;;;;4984851;28;20031;-85
2023/05/26 02:35:30;;;;;;;7.60;5.25;;;;;;;;;;4999202;28;20101;-83
2023/05/26 02:37:55;;;;;;;6.82;5.32;;;;;;;;;;4990458;28;20037;-84
2023/05/26 02:40:21;;;;;;;8.82;5.18;;;;;;;;;;5000080;28;20034;-85
2023/05/26 02:42:46;;;;;;;7.25;5.70;;;;;;;;;;4997060;28;20080;-85
2023/05/26 02:45:11;;;;;;;6.03;5.10;;;;;;;;;;5000719;28;20038;-85
2023/05/26 02:47:37;;;;;;;7.78;5.65;;;;;;;;;;4997324;28;20035;-85
2023/05/26 02:50:03;;;;;;;8.60;5.82;;;;;;;;;;4985426;28;20039;-86
2023/05/26 02:52:31;;;;;;;7.70;6.05;;;;;;;;;;4988565;28;20035;-84
2023/05/26 02:54:57;;;;;;;9.77;6.22;;;;;;;;;;5006360;28;20039;-85
2023/05/26 02:57:22;;;;;;;7.72;5.68;;;;;;;;;;4993631;28;20098;-85
2023/05/26 02:59:48;;;;;;;6.82;5.70;;;;;;;;;;4996659;28;20493;-85
2023/05/26 03:02:13;;;;;;;8.35;5.72;;;;;;;;;;5015236;28;20062;-85
2023/05/26 03:04:39;;;;;;;7.30;5.50;;;;;;;;;;4994456;28;20070;-85
2023/05/26 03:07:07;;;;;;;9.60;6.07;;;;;;;;;;4997409;28;20547;-85
2023/05/26 03:09:34;;;;;;;7.63;5.88;;;;;;;;;;5003757;28;20045;-85
2023/05/26 03:12:01;;;;;;;10.18;6.55;;;;;;;;;;4989729;28;20475;-85
2023/05/26 03:14:27;;;;;;;12.23;6.13;;;;;;;;;;4992769;28;20066;-84
2023/05/26 03:16:52;;;;;;;7.13;5.93;;;;;;;;;;4999549;28;20030;-85
2023/05/26 03:19:18;;;;;;;10.45;6.30;;;;;;;;;;5000192;28;20038;-85
2023/05/26 03:21:45;;;;;;;8.45;5.75;;;;;;;;;;5002234;28;20513;-85
2023/05/26 03:24:10;;;;;;;8.45;6.25;;;;;;;;;;4997767;28;20057;-85
2023/05/26 03:26:36;;;;;;;11.70;6.30;;;;;;;;;;4986926;28;20125;-85
2023/05/26 03:29:02;;;;;;;9.38;6.43;;;;;;;;;;4997753;28;20034;-85
2023/05/26 03:31:27;;;;;;;9.23;6.30;;;;;;;;;;5008511;28;20046;-83
2023/05/26 03:33:53;;;;;;;10.00;6.57;;;;;;;;;;4997590;28;20121;-85
2023/05/26 03:36:19;;;;;;;8.63;6.72;;;;;;;;;;4997911;28;20574;-85
2023/05/26 03:38:45;;;;;;;9.35;6.28;;;;;;;;;;4993214;28;20493;-85
2023/05/26 03:41:11;;;;;;;10.70;6.47;;;;;;;;;;4996349;28;20069;-85
2023/05/26 03:43:48;;;;;;;9.40;6.10;;;;;;;;;;4996200;28;20041;-85
2023/05/26 03:46:15;;;;;;;10.10;6.60;;;;;;;;;;5005236;28;20026;-85
2023/05/26 03:48:40;;;;;;;10.82;6.60;;;;;;;;;;4995915;28;20038;-85
2023/05/26 03:51:06;;;;;;;7.60;5.78;;;;;;;;;;4983579;28;20105;-84
2023/05/26 03:53:31;;;;;;;9.70;5.78;;;;;;;;;;4996705;28;20031;-84
2023/05/26 03:55:57;;;;;;;13.52;6.45;;;;;;;;;;4983954;28;20039;-85
2023/05/26 03:58:22;;;;;;;9.02;6.18;;;;;;;;;;5000935;28;20449;-84
2023/05/26 04:00:48;;;;;;;10.77;6.85;;;;;;;;;;4996212;28;20041;-85
2023/05/26 04:03:14;;;;;;;9.00;6.47;;;;;;;;;;4996978;28;20030;-85
2023/05/26 04:05:40;;;;;;;10.35;6.57;;;;;;;;;;4993807;28;20100;-85
2023/05/26 04:08:05;;;;;;;8.40;6.55;;;;;;;;;;5010984;28;20038;-85
2023/05/26 04:10:31;;;;;;;11.30;6.70;;;;;;;;;;5003483;28;20098;-85
2023/05/26 04:12:57;;;;;;;8.23;6.70;;;;;;;;;;4995890;28;20412;-85
2023/05/26 04:15:22;;;;;;;9.68;6.45;;;;;;;;;;4996462;28;20038;-84
2023/05/26 04:17:48;;;;;;;7.00;5.88;;;;;;;;;;4995660;28;20034;-84
2023/05/26 04:20:14;;;;;;;7.63;6.30;;;;;;;;;;4996057;28;20035;-85
2023/05/26 04:22:40;;;;;;;8.85;5.65;;;;;;;;;;5008800;28;20460;-86
2023/05/26 04:25:07;;;;;;;8.55;6.20;;;;;;;;;;4996837;28;20044;-84
2023/05/26 04:27:43;;;;;;;7.82;6.20;;;;;;;;;;4993709;28;20062;-85
2023/05/26 04:30:30;;;;;;;10.23;6.63;;;;;;;;;;4995770;28;20059;-85
2023/05/26 04:33:22;;;;;;;6.95;5.88;;;;;;;;;;5000852;28;20061;-85
2023/05/26 04:36:08;;;;;;;10.57;6.37;;;;;;;;;;5005825;28;20034;-85
2023/05/26 04:38:36;;;;;;;8.27;6.45;;;;;;;;;;4996554;28;20365;-85
2023/05/26 04:41:06;;;;;;;8.68;6.60;;;;;;;;;;4996069;28;20035;-84
2023/05/26 04:43:35;;;;;;;11.38;6.53;;;;;;;;;;4999005;28;20034;-84
2023/05/26 04:46:02;;;;;;;10.45;6.45;;;;;;;;;;4980659;28;20053;-83
2023/05/26 04:48:30;;;;;;;8.32;6.35;;;;;;;;;;5004604;28;20690;-84
2023/05/26 04:50:55;;;;;;;10.88;6.30;;;;;;;;;;5003436;28;20038;-85
2023/05/26 04:53:21;;;;;;;9.88;6.47;;;;;;;;;;5002128;28;20033;-85
2023/05/26 04:55:47;;;;;;;8.88;6.38;;;;;;;;;;4997766;28;20124;-85
2023/05/26 04:58:13;;;;;;;7.72;6.07;;;;;;;;;;4995802;28;20030;-84
2023/05/26 05:00:39;;;;;;;8.95;6.22;;;;;;;;;;4995912;28;20043;-84
2023/05/26 05:03:23;;;;;;;15.60;8.65;;;;;;;;;;4984085;28;20053;-84
2023/05/26 05:06:01;;;;;;;10.60;7.30;;;;;;;;;;4994307;28;20030;-86
2023/05/26 05:08:27;;;;;;;9.20;7.55;;;;;;;;;;4994287;28;20041;-86
2023/05/26 05:10:52;;;;;;;8.77;6.97;;;;;;;;;;5007399;28;20505;-85
2023/05/26 05:13:18;;;;;;;9.43;6.82;;;;;;;;;;4995955;28;20038;-84
2023/05/26 05:15:44;;;;;;;9.30;7.03;;;;;;;;;;4989109;28;20093;-84
2023/05/26 05:18:10;;;;;;;12.25;7.47;;;;;;;;;;4979061;28;20034;-84
2023/05/26 05:20:35;;;;;;;12.30;7.47;;;;;;;;;;4983998;28;20042;-84
2023/05/26 05:23:02;;;;;;;11.00;7.40;;;;;;;;;;4997835;28;20057;-85
2023/05/26 05:25:27;;;;;;;10.00;7.18;;;;;;;;;;4998264;28;20524;-85
2023/05/26 05:27:54;;;;;;;20.40;10.82;;;;;;;;;;5009224;28;20039;-84
2023/05/26 05:30:21;;;;;;;13.45;7.30;;;;;;;;;;4998328;28;20042;-84
2023/05/26 05:32:47;;;;;;;12.50;6.70;;;;;;;;;;4998223;28;20030;-85
2023/05/26 05:35:13;;;;;;;9.00;6.60;;;;;;;;;;4997601;28;20497;-84
2023/05/26 05:37:39;;;;;;;8.68;6.85;;;;;;;;;;4993769;28;20035;-84
2023/05/26 05:40:05;;;;;;;12.88;7.53;;;;;;;;;;5004749;28;20415;-85
2023/05/26 05:42:31;;;;;;;11.82;7.63;;;;;;;;;;5007109;28;20100;-85
2023/05/26 05:44:56;;;;;;;9.35;7.00;;;;;;;;;;4996679;28;20038;-84
2023/05/26 05:47:42;;;;;;;10.80;7.00;;;;;;;;;;4998784;28;20038;-85
2023/05/26 05:50:07;;;;;;;9.05;7.47;;;;;;;;;;4992657;28;20039;-85
2023/05/26 05:52:34;;;;;;;9.75;6.88;;;;;;;;;;4999264;28;20386;-84
2023/05/26 05:54:59;;;;;;;9.85;7.22;;;;;;;;;;5004649;28;20041;-84
2023/05/26 05:57:26;;;;;;;9.73;6.78;;;;;;;;;;4996993;28;20038;-85
2023/05/26 05:59:52;;;;;;;10.10;6.43;;;;;;;;;;5002348;28;20119;-84
2023/05/26 06:02:18;;;;;;;9.52;6.75;;;;;;;;;;4997620;28;20054;-83
2023/05/26 06:04:43;;;;;;;9.15;6.88;;;;;;;;;;4998639;28;20034;-85
2023/05/26 06:07:09;;;;;;;9.00;6.63;;;;;;;;;;4983568;28;20081;-85
2023/05/26 06:09:34;;;;;;;9.50;6.60;;;;;;;;;;4998418;28;20177;-85
2023/05/26 06:12:01;;;;;;;13.32;6.95;;;;;;;;;;4999780;28;20173;-84
2023/05/26 06:14:27;;;;;;;9.80;6.72;;;;;;;;;;5009237;28;20048;-85
2023/05/26 06:16:53;;;;;;;9.45;6.30;;;;;;;;;;5000725;28;20101;-85
2023/05/26 06:19:19;;;;;;;10.63;7.05;;;;;;;;;;5003380;28;20077;-85
2023/05/26 06:21:45;;;;;;;7.97;6.70;;;;;;;;;;4999905;28;20065;-85
2023/05/26 06:24:11;;;;;;;12.15;6.72;;;;;;;;;;4987453;28;20508;-85
2023/05/26 06:26:37;;;;;;;10.10;7.50;;;;;;;;;;4991881;28;20038;-87
2023/05/26 06:29:04;;;;;;;11.35;7.07;;;;;;;;;;4995039;28;20522;-84
2023/05/26 06:31:30;;;;;;;10.45;6.82;;;;;;;;;;4992903;28;20034;-85
2023/05/26 06:34:03;;;;;;;8.80;6.50;;;;;;;;;;5005749;28;20078;-86
2023/05/26 06:36:28;;;;;;;11.02;7.63;;;;;;;;;;4987294;28;20038;-86
2023/05/26 06:38:54;;;;;;;10.27;7.63;;;;;;;;;;5001045;28;20413;-86
2023/05/26 06:41:20;;;;;;;10.43;7.55;;;;;;;;;;4992034;28;20058;-87
2023/05/26 06:43:47;;;;;;;12.68;7.47;;;;;;;;;;4999631;28;20043;-86
2023/05/26 06:46:12;;;;;;;11.13;7.57;;;;;;;;;;4992703;28;20109;-86
2023/05/26 06:48:39;;;;;;;10.00;7.00;;;;;;;;;;5004599;28;20053;-86
2023/05/26 06:51:14;;;;;;;11.23;7.82;;;;;;;;;;5000972;28;20030;-87
2023/05/26 06:53:40;;;;;;;9.48;6.85;;;;;;;;;;5003124;28;20038;-87
2023/05/26 06:56:06;;;;;;;11.63;6.97;;;;;;;;;;5002273;28;20039;-88
2023/05/26 06:58:32;;;;;;;9.82;6.95;;;;;;;;;;5001154;28;20043;-88
2023/05/26 07:01:02;;;;;;;14.00;7.60;;;;;;;;;;4993168;28;20039;-88
2023/05/26 07:03:30;;;;;;;11.25;7.00;;;;;;;;;;5011043;28;20058;-88
2023/05/26 07:05:58;;;;;;;9.63;7.28;;;;;;;;;;5014393;28;20037;-87
2023/05/26 07:08:26;;;;;;;12.18;7.07;;;;;;;;;;5003619;28;20039;-87
2023/05/26 07:10:53;;;;;;;8.65;6.43;;;;;;;;;;5002896;28;20043;-87
2023/05/26 07:13:19;;;;;;;9.05;7.00;;;;;;;;;;4988612;28;20066;-87
2023/05/26 07:15:45;;;;;;;9.88;6.80;;;;;;;;;;5002780;28;20523;-87
2023/05/26 07:18:12;;;;;;;10.02;6.95;;;;;;;;;;5003316;28;20038;-86
2023/05/26 07:20:38;;;;;;;9.93;6.90;;;;;;;;;;4998263;28;20039;-87
2023/05/26 07:23:04;;;;;;;10.48;6.80;;;;;;;;;;4997280;28;20042;-88
2023/05/26 07:25:30;;;;;;;16.48;7.10;;;;;;;;;;4997299;28;20505;-84
2023/05/26 07:27:57;;;;;;;12.65;7.43;;;;;;;;;;5000452;28;20493;-87
2023/05/26 07:30:23;;;;;;;9.75;6.30;;;;;;;;;;4997025;28;20386;-85
2023/05/26 07:33:01;;;;;;;11.10;7.20;;;;;;;;;;5001711;28;20662;-89
2023/05/26 07:35:26;;;;;;;9.60;7.50;;;;;;;;;;5007739;28;20034;-88
2023/05/26 07:37:53;;;;;;;11.65;7.78;;;;;;;;;;5006909;28;20023;-89
2023/05/26 07:40:18;;;;;;;11.52;7.55;;;;;;;;;;5001075;28;20713;-88
2023/05/26 07:42:44;;;;;;;12.18;7.60;;;;;;;;;;5003666;28;20047;-88
2023/05/26 07:45:10;;;;;;;10.95;7.60;;;;;;;;;;4987097;28;20034;-89
2023/05/26 07:47:35;;;;;;;11.05;7.18;;;;;;;;;;4989145;28;20045;-88
2023/05/26 07:50:02;;;;;;;11.02;7.03;;;;;;;;;;4989802;28;20066;-89
2023/05/26 07:52:28;;;;;;;11.07;7.68;;;;;;;;;;4997463;28;20034;-88
2023/05/26 07:54:53;;;;;;;12.18;8.00;;;;;;;;;;4994889;28;20045;-87
2023/05/26 07:57:19;;;;;;;12.07;7.43;;;;;;;;;;4998138;28;20034;-87
2023/05/26 07:59:44;;;;;;;10.07;7.35;;;;;;;;;;4985560;28;20459;-89
2023/05/26 08:02:11;;;;;;;13.85;7.80;;;;;;;;;;4986192;28;20053;-88
2023/05/26 08:04:43;;;;;;;11.38;7.70;;;;;;;;;;5082199;27;20458;-88
2023/05/26 08:07:08;;;;;;;11.50;7.10;;;;;;;;;;5086133;28;20486;-89
2023/05/26 08:09:34;;;;;;;12.23;7.05;;;;;;;;;;5087173;28;20068;-89
2023/05/26 08:11:59;;;;;;;13.13;7.97;;;;;;;;;;5086239;28;20041;-89
2023/05/26 08:14:26;;;;;;;10.13;6.43;;;;;;;;;;5085963;28;20048;-88
2023/05/26 08:16:51;;;;;;;11.00;6.88;;;;;;;;;;5086678;28;20033;-89
2023/05/26 08:19:17;;;;;;;10.10;7.30;;;;;;;;;;5074554;28;20178;-88
2023/05/26 08:21:42;;;;;;;12.45;7.13;;;;;;;;;;5080369;28;20044;-89
2023/05/26 08:24:08;;;;;;;13.40;8.45;;;;;;;;;;5085716;28;20028;-88
2023/05/26 08:26:33;;;;;;;13.20;7.93;;;;;;;;;;5093709;28;20052;-85
2023/05/26 08:28:59;;;;;;;12.32;7.30;;;;;;;;;;5094583;28;20033;-86
2023/05/26 08:31:25;;;;;;;13.95;7.60;;;;;;;;;;5097337;28;20075;-84
2023/05/26 08:33:50;;;;;;;10.30;7.50;;;;;;;;;;5083873;28;20050;-85
2023/05/26 08:36:16;;;;;;;11.93;7.80;;;;;;;;;;5083295;28;20099;-85
2023/05/26 08:38:41;;;;;;;9.77;8.10;;;;;;;;;;5084424;28;20097;-86
2023/05/26 08:41:08;;;;;;;12.60;7.60;;;;;;;;;;5086497;28;20048;-85
2023/05/26 08:43:52;;;;;;;11.45;8.65;;;;;;;;;;5092353;28;20098;-85
2023/05/26 08:46:18;;;;;;;12.85;8.52;;;;;;;;;;5083964;28;20060;-87
2023/05/26 08:48:44;;;;;;;12.82;7.45;;;;;;;;;;5078048;28;20032;-87
2023/05/26 08:51:10;;;;;;;13.65;8.65;;;;;;;;;;5077218;28;20518;-86
2023/05/26 08:53:37;;;;;;;14.07;8.45;;;;;;;;;;5081488;28;20050;-85
2023/05/26 08:56:03;;;;;;;12.60;7.90;;;;;;;;;;5085070;28;20094;-85
2023/05/26 08:58:31;;;;;;;11.43;7.72;;;;;;;;;;5088653;28;20128;-86
2023/05/26 09:00:57;;;;;;;10.68;7.93;;;;;;;;;;5086591;28;20042;-86
2023/05/26 09:03:23;;;;;;;13.07;7.78;;;;;;;;;;5091526;28;20063;-86
2023/05/26 09:05:48;;;;;;;16.75;8.05;;;;;;;;;;5084315;28;20045;-86
2023/05/26 09:08:14;;;;;;;13.50;7.97;;;;;;;;;;5061323;28;20043;-85
2023/05/26 09:10:40;;;;;;;12.00;7.68;;;;;;;;;;5082154;28;20045;-86
2023/05/26 09:13:10;;;;;;;13.57;7.90;;;;;;;;;;5087542;28;20375;-87
2023/05/26 09:15:37;;;;;;;12.38;7.10;;;;;;;;;;5080107;28;20070;-87
2023/05/26 09:18:04;;;;;;;11.70;8.15;;;;;;;;;;5079810;28;20044;-87
2023/05/26 09:20:30;;;;;;;11.77;7.97;;;;;;;;;;5083147;28;20084;-87
2023/05/26 09:22:57;;;;;;;11.98;7.63;;;;;;;;;;5069812;28;20065;-87
2023/05/26 09:25:31;;;;;;;12.43;8.00;;;;;;;;;;5069059;28;20067;-88
2023/05/26 09:28:04;;;;;;;11.88;8.05;;;;;;;;;;5071081;28;20037;-88
2023/05/26 09:30:41;;;;;;;11.55;7.82;;;;;;;;;;5074364;28;20048;-87
2023/05/26 09:33:09;;;;;;;11.40;8.30;;;;;;;;;;5073510;28;20040;-88
2023/05/26 09:35:39;;;;;;;12.63;8.20;;;;;;;;;;5073053;28;20158;-88
2023/05/26 09:38:06;;;;;;;14.55;7.88;;;;;;;;;;5069536;28;20163;-87
2023/05/26 09:40:32;;;;;;;11.30;7.47;;;;;;;;;;5062367;28;20036;-88
2023/05/26 09:42:57;;;;;;;13.30;7.47;;;;;;;;;;5064882;28;20071;-88
2023/05/26 09:45:23;;;;;;;16.92;7.47;;;;;;;;;;5065883;28;20053;-88
2023/05/26 09:47:56;;;;;;;11.75;7.60;;;;;;;;;;5076053;28;20593;-88
2023/05/26 09:50:22;;;;;;;12.10;6.97;;;;;;;;;;5066477;28;20033;-88
2023/05/26 09:52:49;;;;;;;14.07;6.50;;;;;;;;;;5063384;28;20315;-88
2023/05/26 09:55:15;;;;;;;12.75;5.93;;;;;;;;;;5058413;28;20057;-88
2023/05/26 09:57:43;;;;;;;11.63;6.70;;;;;;;;;;5063846;28;20507;-88
2023/05/26 10:00:10;;;;;;;10.75;5.85;;;;;;;;;;5067497;28;20036;-87
2023/05/26 10:02:36;;;;;;;11.60;6.40;;;;;;;;;;5071346;28;20056;-87
2023/05/26 10:05:03;;;;;;;9.35;6.65;;;;;;;;;;5067506;28;20519;-88
2023/05/26 10:07:30;;;;;;;11.23;6.45;;;;;;;;;;5071869;28;20021;-88
2023/05/26 10:09:58;;;;;;;14.75;6.57;;;;;;;;;;5074205;28;20118;-88
2023/05/26 10:12:32;;;;;;;13.20;6.97;;;;;;;;;;5067528;28;20528;-88
2023/05/26 10:14:58;;;;;;;12.27;6.45;;;;;;;;;;5072647;28;20147;-88
2023/05/26 10:17:25;;;;;;;11.13;5.70;;;;;;;;;;5068724;28;20045;-88
2023/05/26 10:19:53;;;;;;;13.70;7.00;;;;;;;;;;5069276;28;20033;-88
2023/05/26 10:22:36;;;;;;;11.43;6.88;;;;;;;;;;5071670;28;20486;-88
2023/05/26 10:25:36;;;;;;;10.67;6.13;;;;;;;;;;5069882;28;20606;-88
2023/05/26 10:28:02;;;;;;;9.25;6.07;;;;;;;;;;5065966;28;20357;-88
2023/05/26 10:30:28;;;;;;;9.98;6.32;;;;;;;;;;5067777;28;20029;-88
2023/05/26 10:32:55;;;;;;;13.45;6.63;;;;;;;;;;5070601;28;20040;-89
2023/05/26 10:35:23;;;;;;;12.18;7.20;;;;;;;;;;5072287;28;20036;-89
2023/05/26 10:38:11;;;;;;;11.88;5.60;;;;;;;;;;5076699;28;20040;-89
2023/05/26 10:40:40;;;;;;;11.23;7.70;;;;;;;;;;5079235;28;20600;-89
2023/05/26 10:43:17;;;;;;;10.20;6.82;;;;;;;;;;5083427;28;20029;-88
2023/05/26 10:46:00;;;;;;;12.32;7.93;;;;;;;;;;5063092;28;20215;-88
2023/05/26 10:48:56;;;;;;;15.52;8.05;;;;;;;;;;5072311;28;20036;-89
2023/05/26 10:51:29;;;;;;;10.85;7.65;;;;;;;;;;5070940;28;20143;-88
2023/05/26 10:54:13;;;;;;;11.35;7.30;;;;;;;;;;5073372;28;20148;-89
2023/05/26 10:56:42;;;;;;;;;;;;;;;;;;5070316;28;20059;-86
2023/05/26 10:59:18;;;;;;;12.88;7.88;;;;;;;;;;5083370;28;19916;-88
2023/05/26 11:01:50;;;;;;;14.95;8.00;;;;;;;;;;5068299;28;20040;-89
2023/05/26 11:04:15;;;;;;;16.20;7.30;;;;;;;;;;5068055;28;20032;-89
2023/05/26 11:06:47;;;;;;;13.05;8.35;;;;;;;;;;5060064;28;20096;-88
2023/05/26 11:09:13;;;;;;;12.45;7.22;;;;;;;;;;5055532;28;20039;-88
2023/05/26 11:11:57;;;;;;;10.45;7.25;;;;;;;;;;5069735;28;20036;-88
2023/05/26 11:14:29;;;;;;;13.90;7.13;;;;;;;;;;5073420;28;20036;-88
2023/05/26 11:16:56;;;;;;;16.30;7.78;;;;;;;;;;5071596;28;20047;-88
2023/05/26 11:19:30;;;;;;;12.60;7.30;;;;;;;;;;5058723;28;20095;-87
2023/05/26 11:21:57;;;;;;;14.45;7.47;;;;;;;;;;5062606;28;20048;-88
2023/05/26 11:24:23;;;;;;;11.27;6.97;;;;;;;;;;5067277;28;20083;-87
2023/05/26 11:26:49;;;;;;;13.77;6.82;;;;;;;;;;5069387;28;20112;-88
2023/05/26 11:29:15;;;;;;;10.50;7.00;;;;;;;;;;5074560;28;20079;-88
2023/05/26 11:31:45;;;;;;;9.77;6.72;;;;;;;;;;5075555;28;20031;-88
2023/05/26 11:34:10;;;;;;;13.70;7.80;;;;;;;;;;5067287;28;20111;-89
2023/05/26 11:36:36;;;;;;;11.68;6.82;;;;;;;;;;5055409;28;20152;-90
2023/05/26 11:39:03;;;;;;;11.60;6.15;;;;;;;;;;5056326;28;20055;-88
2023/05/26 11:41:29;;;;;;;11.20;6.05;;;;;;;;;;5044259;28;20040;-89
2023/05/26 11:43:56;;;;;;;12.15;6.80;;;;;;;;;;5063074;28;20079;-90
2023/05/26 11:46:23;;;;;;;12.98;6.40;;;;;;;;;;5067454;28;20048;-89
2023/05/26 11:48:50;;;;;;;10.55;6.10;;;;;;;;;;5069503;28;20167;-90
2023/05/26 11:51:19;;;;;;;8.95;6.18;;;;;;;;;;5055856;28;20032;-89
2023/05/26 11:53:56;;;;;;;9.57;5.88;;;;;;;;;;5056372;28;20029;-89
2023/05/26 11:56:32;;;;;;;8.73;5.63;;;;;;;;;;5060028;28;20383;-89
2023/05/26 11:58:57;;;;;;;10.55;5.60;;;;;;;;;;5060632;28;20572;-89
2023/05/26 12:01:28;;;;;;;8.00;5.70;;;;;;;;;;5059218;28;20056;-88
2023/05/26 12:03:56;;;;;;;10.85;5.68;;;;;;;;;;5059184;28;20056;-90
2023/05/26 12:06:23;;;;;;;13.95;6.03;;;;;;;;;;5052359;28;20112;-90
2023/05/26 12:09:00;;;;;;;11.98;6.65;;;;;;;;;;5053718;28;20044;-89
2023/05/26 12:11:29;;;;;;;8.35;5.63;;;;;;;;;;5058213;28;20036;-89
2023/05/26 12:14:03;;;;;;;9.88;5.68;;;;;;;;;;5061994;28;20125;-89
2023/05/26 12:16:32;;;;;;;10.98;6.10;;;;;;;;;;5067104;28;20040;-88
2023/05/26 12:19:03;;;;;;;10.18;5.90;;;;;;;;;;5065793;28;20726;-90
2023/05/26 12:21:29;;;;;;;11.02;5.60;;;;;;;;;;5055271;28;20043;-89
2023/05/26 12:23:56;;;;;;;9.60;4.45;;;;;;;;;;5057714;28;20033;-89
2023/05/26 12:26:29;;;;;;;10.32;5.20;;;;;;;;;;5061565;28;20040;-89
2023/05/26 12:29:07;;;;;;;9.80;5.28;;;;;;;;;;5080774;28;20063;-88
2023/05/26 12:31:45;;;;;;;8.98;4.90;;;;;;;;;;5071273;28;20041;-89
2023/05/26 12:34:18;;;;;;;7.45;4.53;;;;;;;;;;5059416;28;20036;-89
2023/05/26 12:36:44;;;;;;;14.15;4.80;;;;;;;;;;5069518;28;20036;-88
2023/05/26 12:39:10;;;;;;;9.65;4.32;;;;;;;;;;5068780;28;20067;-88
2023/05/26 12:41:36;;;;;;;8.30;5.00;;;;;;;;;;5071447;28;20804;-88
2023/05/26 12:44:02;;;;;;;7.43;5.25;;;;;;;;;;5074810;28;20024;-88
2023/05/26 12:46:29;;;;;;;7.38;4.18;;;;;;;;;;5074637;28;20713;-88
2023/05/26 12:48:55;;;;;;;10.18;4.55;;;;;;;;;;5076580;28;20033;-88
2023/05/26 12:51:20;;;;;;;8.35;4.57;;;;;;;;;;5085806;28;20028;-89
2023/05/26 12:53:46;;;;;;;8.60;4.88;;;;;;;;;;5084612;28;20028;-88
2023/05/26 12:56:11;;;;;;;10.52;4.78;;;;;;;;;;5079993;28;20033;-87
2023/05/26 12:58:41;;;;;;;7.40;4.90;;;;;;;;;;5082138;28;20054;-87
2023/05/26 13:01:11;;;;;;;8.60;5.05;;;;;;;;;;5085004;28;20050;-89
2023/05/26 13:03:39;;;;;;;9.82;4.97;;;;;;;;;;5087706;28;20036;-88
2023/05/26 13:06:06;;;;;;;9.48;4.97;;;;;;;;;;5080162;28;20086;-85
2023/05/26 13:08:32;;;;;;;7.50;4.70;;;;;;;;;;5069697;28;20512;-86
2023/05/26 13:10:58;;;;;;;10.32;4.72;;;;;;;;;;5080900;28;20041;-87
2023/05/26 13:13:24;;;;;;;11.57;4.70;;;;;;;;;;5080156;28;20101;-86
2023/05/26 13:15:50;;;;;;;8.18;5.45;;;;;;;;;;5080405;28;20036;-87
2023/05/26 13:18:16;;;;;;;8.27;4.57;;;;;;;;;;5085594;28;20131;-87
2023/05/26 13:20:41;;;;;;;9.75;4.80;;;;;;;;;;5086343;28;20555;-87
2023/05/26 13:23:07;;;;;;;12.18;5.13;;;;;;;;;;5084528;28;20037;-86
2023/05/26 13:25:33;;;;;;;35.28;5.65;;;;;;;;;;5084371;28;20037;-88
2023/05/26 13:27:58;;;;;;;6.97;4.80;;;;;;;;;;5082815;28;20037;-87
2023/05/26 13:30:25;;;;;;;8.52;4.40;;;;;;;;;;5078498;28;20037;-87
2023/05/26 13:32:51;;;;;;;7.80;4.50;;;;;;;;;;5075825;28;20037;-86
2023/05/26 13:35:17;;;;;;;8.38;4.70;;;;;;;;;;5072671;28;20119;-87
2023/05/26 13:37:43;;;;;;;8.45;4.75;;;;;;;;;;5069199;28;20041;-87
2023/05/26 13:40:10;;;;;;;9.85;4.70;;;;;;;;;;5070920;28;20100;-87
2023/05/26 13:42:36;;;;;;;10.45;4.47;;;;;;;;;;5070547;28;20044;-88
2023/05/26 13:45:03;;;;;;;8.80;4.47;;;;;;;;;;5074584;28;20094;-86
2023/05/26 13:47:29;;;;;;;5.82;4.18;;;;;;;;;;5080535;28;20048;-86
2023/05/26 13:49:55;;;;;;;9.25;4.63;;;;;;;;;;5081087;28;20041;-87
2023/05/26 13:52:20;;;;;;;5.70;4.28;;;;;;;;;;5085980;28;20044;-87
2023/05/26 13:54:46;;;;;;;10.63;4.45;;;;;;;;;;5082390;28;20072;-87
2023/05/26 13:57:11;;;;;;;7.13;4.45;;;;;;;;;;5073317;28;20040;-88
2023/05/26 13:59:37;;;;;;;8.25;4.25;;;;;;;;;;5055932;28;20029;-85
2023/05/26 14:02:02;;;;;;;9.98;4.55;;;;;;;;;;5078785;28;20044;-86
2023/05/26 14:04:28;;;;;;;7.10;4.40;;;;;;;;;;5077615;28;20033;-86
2023/05/26 14:06:53;;;;;;;8.13;4.35;;;;;;;;;;5080111;28;20062;-87
2023/05/26 14:09:19;;;;;;;9.57;5.25;;;;;;;;;;5067303;28;20044;-87
2023/05/26 14:11:44;;;;;;;10.45;5.18;;;;;;;;;;5066975;28;20025;-86
2023/05/26 14:14:10;;;;;;;8.50;4.70;;;;;;;;;;5070006;28;20088;-87
2023/05/26 14:16:35;;;;;;;7.90;4.82;;;;;;;;;;5072537;28;20025;-85
2023/05/26 14:19:03;;;;;;;6.78;4.88;;;;;;;;;;5077303;28;20028;-85
2023/05/26 14:21:29;;;;;;;12.15;4.70;;;;;;;;;;5076651;28;20052;-86
2023/05/26 14:23:54;;;;;;;11.50;5.03;;;;;;;;;;5071666;28;20048;-87
2023/05/26 14:26:20;;;;;;;9.80;5.43;;;;;;;;;;5071136;28;20037;-86
2023/05/26 14:28:46;;;;;;;8.18;4.65;;;;;;;;;;5069193;28;20703;-86
2023/05/26 14:31:13;;;;;;;10.52;4.70;;;;;;;;;;5069623;28;20047;-87
2023/05/26 14:33:40;;;;;;;11.40;4.90;;;;;;;;;;5073915;28;20071;-87
2023/05/26 14:36:06;;;;;;;11.40;5.13;;;;;;;;;;5075957;28;20064;-85
2023/05/26 14:38:31;;;;;;;6.80;4.82;;;;;;;;;;5081824;28;20032;-87
2023/05/26 14:40:57;;;;;;;10.00;4.72;;;;;;;;;;5083048;28;20047;-88